sensor_id;sensor_type;location;lat;lon;timestamp;pressure;altitude;pressure_sealevel;temperature;humidity
34370;BME280;20635;55.812;37.560;2022-12-07T00:01:42;100581.59;;;25.10;38.24
34370;BME280;20635;55.812;37.560;2022-12-07T00:04:12;100584.41;;;25.10;38.21
34370;BME280;20635;55.812;37.560;2022-12-07T00:06:44;100581.59;;;25.10;38.04
34370;BME280;20635;55.812;37.560;2022-12-07T00:09:16;100581.59;;;25.10;38.28
34370;BME280;20635;55.812;37.560;2022-12-07T00:11:50;100581.59;;;25.10;37.88
34370;BME280;20635;55.812;37.560;2022-12-07T00:14:18;100577.97;;;25.09;38.07
34370;BME280;20635;55.812;37.560;2022-12-07T00:16:44;100593.66;;;25.10;38.23
34370;BME280;20635;55.812;37.560;2022-12-07T00:19:13;100584.41;;;25.10;38.11
34370;BME280;20635;55.812;37.560;2022-12-07T00:21:39;100586.06;;;25.11;38.34
34370;BME280;20635;55.812;37.560;2022-12-07T00:24:05;100581.59;;;25.10;38.01
34370;BME280;20635;55.812;37.560;2022-12-07T00:26:34;100586.88;;;25.11;38.12
34370;BME280;20635;55.812;37.560;2022-12-07T00:29:04;100581.59;;;25.10;37.83
34370;BME280;20635;55.812;37.560;2022-12-07T00:31:35;100571.22;;;25.10;38.22
34370;BME280;20635;55.812;37.560;2022-12-07T00:34:07;100570.06;;;25.11;37.72
34370;BME280;20635;55.812;37.560;2022-12-07T00:36:38;100577.66;;;25.11;38.03
34370;BME280;20635;55.812;37.560;2022-12-07T00:39:05;100582.09;;;25.12;38.02
34370;BME280;20635;55.812;37.560;2022-12-07T00:41:31;100579.63;;;25.10;38.10
34370;BME280;20635;55.812;37.560;2022-12-07T00:43:57;100583.25;;;25.11;38.42
34370;BME280;20635;55.812;37.560;2022-12-07T00:46:24;100587.72;;;25.12;37.91
34370;BME280;20635;55.812;37.560;2022-12-07T00:48:51;100582.97;;;25.12;37.95
34370;BME280;20635;55.812;37.560;2022-12-07T00:51:19;100589.41;;;25.13;37.58
34370;BME280;20635;55.812;37.560;2022-12-07T00:53:45;100578.47;;;25.11;37.78
34370;BME280;20635;55.812;37.560;2022-12-07T00:56:16;100576.50;;;25.12;37.57
34370;BME280;20635;55.812;37.560;2022-12-07T00:58:42;100582.09;;;25.12;37.62
34370;BME280;20635;55.812;37.560;2022-12-07T01:01:09;100580.16;;;25.12;37.42
34370;BME280;20635;55.812;37.560;2022-12-07T01:03:36;100578.19;;;25.13;37.44
34370;BME280;20635;55.812;37.560;2022-12-07T01:06:03;100582.97;;;25.12;37.53
34370;BME280;20635;55.812;37.560;2022-12-07T01:08:29;100567.25;;;25.11;37.47
34370;BME280;20635;55.812;37.560;2022-12-07T01:11:06;100573.91;;;25.15;37.34
34370;BME280;20635;55.812;37.560;2022-12-07T01:13:34;100582.97;;;25.12;37.29
34370;BME280;20635;55.812;37.560;2022-12-07T01:16:02;100581.00;;;25.13;37.35
34370;BME280;20635;55.812;37.560;2022-12-07T01:18:29;100575.66;;;25.11;37.37
34370;BME280;20635;55.812;37.560;2022-12-07T01:23:30;100566.97;;;25.13;37.29
34370;BME280;20635;55.812;37.560;2022-12-07T01:25:58;100566.97;;;25.13;37.44
34370;BME280;20635;55.812;37.560;2022-12-07T01:28:24;100570.88;;;25.12;37.40
34370;BME280;20635;55.812;37.560;2022-12-07T01:31:02;100569.78;;;25.13;37.26
34370;BME280;20635;55.812;37.560;2022-12-07T01:33:30;100568.94;;;25.12;37.46
34370;BME280;20635;55.812;37.560;2022-12-07T01:36:12;100568.63;;;25.14;37.80
34370;BME280;20635;55.812;37.560;2022-12-07T01:38:39;100558.84;;;25.11;37.43
34370;BME280;20635;55.812;37.560;2022-12-07T01:41:05;100560.81;;;25.11;37.37
34370;BME280;20635;55.812;37.560;2022-12-07T01:43:32;100556.88;;;25.12;37.51
34370;BME280;20635;55.812;37.560;2022-12-07T01:45:59;100553.22;;;25.11;37.63
34370;BME280;20635;55.812;37.560;2022-12-07T01:48:38;100552.63;;;25.14;37.57
34370;BME280;20635;55.812;37.560;2022-12-07T01:51:08;100540.03;;;25.12;37.18
34370;BME280;20635;55.812;37.560;2022-12-07T01:53:38;100552.13;;;25.12;37.50
34370;BME280;20635;55.812;37.560;2022-12-07T01:56:05;100547.63;;;25.11;37.62
34370;BME280;20635;55.812;37.560;2022-12-07T01:58:33;100550.44;;;25.11;37.64
34370;BME280;20635;55.812;37.560;2022-12-07T02:00:59;100536.41;;;25.11;37.83
34370;BME280;20635;55.812;37.560;2022-12-07T02:03:38;100541.41;;;25.14;37.18
34370;BME280;20635;55.812;37.560;2022-12-07T02:06:05;100551.25;;;25.12;37.49
34370;BME280;20635;55.812;37.560;2022-12-07T02:08:34;100536.13;;;25.13;37.50
34370;BME280;20635;55.812;37.560;2022-12-07T02:11:01;100536.13;;;25.13;37.39
34370;BME280;20635;55.812;37.560;2022-12-07T02:13:31;100539.75;;;25.13;37.46
34370;BME280;20635;55.812;37.560;2022-12-07T02:21:51;100550.66;;;25.15;37.80
34370;BME280;20635;55.812;37.560;2022-12-07T02:24:54;100535.69;;;25.19;37.36
34370;BME280;20635;55.812;37.560;2022-12-07T02:30:11;100534.84;;;25.19;37.45
34370;BME280;20635;55.812;37.560;2022-12-07T02:32:51;100530.06;;;25.19;37.83
34370;BME280;20635;55.812;37.560;2022-12-07T02:35:23;100531.84;;;25.15;37.39
34370;BME280;20635;55.812;37.560;2022-12-07T02:38:16;100537.66;;;25.19;37.49
34370;BME280;20635;55.812;37.560;2022-12-07T02:41:04;100522.50;;;25.20;37.38
34370;BME280;20635;55.812;37.560;2022-12-07T02:43:40;100528.94;;;25.20;37.18
34370;BME280;20635;55.812;37.560;2022-12-07T02:46:14;100527.06;;;25.16;36.96
34370;BME280;20635;55.812;37.560;2022-12-07T02:48:43;100539.63;;;25.18;36.97
34370;BME280;20635;55.812;37.560;2022-12-07T02:51:09;100526.75;;;25.17;37.18
34370;BME280;20635;55.812;37.560;2022-12-07T02:53:41;100535.19;;;25.17;37.05
34370;BME280;20635;55.812;37.560;2022-12-07T02:56:18;100528.09;;;25.20;36.87
34370;BME280;20635;55.812;37.560;2022-12-07T02:58:59;100522.50;;;25.20;37.33
34370;BME280;20635;55.812;37.560;2022-12-07T03:01:34;100527.28;;;25.19;37.30
34370;BME280;20635;55.812;37.560;2022-12-07T03:06:55;100524.19;;;25.21;36.59
34370;BME280;20635;55.812;37.560;2022-12-07T03:12:21;100530.63;;;25.21;37.44
34370;BME280;20635;55.812;37.560;2022-12-07T03:15:03;100517.09;;;25.23;37.56
34370;BME280;20635;55.812;37.560;2022-12-07T03:17:33;100529.47;;;25.22;37.86
34370;BME280;20635;55.812;37.560;2022-12-07T03:20:04;100529.78;;;25.21;38.66
34370;BME280;20635;55.812;37.560;2022-12-07T03:22:34;100531.44;;;25.22;39.41
34370;BME280;20635;55.812;37.560;2022-12-07T03:25:04;100528.31;;;25.23;39.88
34370;BME280;20635;55.812;37.560;2022-12-07T03:27:35;100529.13;;;25.24;40.28
34370;BME280;20635;55.812;37.560;2022-12-07T03:30:12;100519.56;;;25.25;40.87
34370;BME280;20635;55.812;37.560;2022-12-07T03:33:06;100525.19;;;25.25;41.52
34370;BME280;20635;55.812;37.560;2022-12-07T03:35:37;100522.09;;;25.26;41.61
34370;BME280;20635;55.812;37.560;2022-12-07T03:41:07;100520.63;;;25.29;41.96
34370;BME280;20635;55.812;37.560;2022-12-07T03:43:35;100530.19;;;25.28;42.56
34370;BME280;20635;55.812;37.560;2022-12-07T03:51:42;100517.53;;;25.30;43.42
34370;BME280;20635;55.812;37.560;2022-12-07T03:54:28;100519.19;;;25.32;43.48
34370;BME280;20635;55.812;37.560;2022-12-07T03:56:57;100520.31;;;25.30;43.92
34370;BME280;20635;55.812;37.560;2022-12-07T03:59:24;100518.34;;;25.31;44.34
34370;BME280;20635;55.812;37.560;2022-12-07T04:01:53;100519.19;;;25.32;44.65
34370;BME280;20635;55.812;37.560;2022-12-07T04:04:21;100518.03;;;25.33;44.84
34370;BME280;20635;55.812;37.560;2022-12-07T04:06:47;100516.03;;;25.33;44.86
34370;BME280;20635;55.812;37.560;2022-12-07T04:09:13;100512.09;;;25.34;45.44
34370;BME280;20635;55.812;37.560;2022-12-07T04:11:40;100520.50;;;25.34;45.30
34370;BME280;20635;55.812;37.560;2022-12-07T04:14:06;100517.41;;;25.36;44.19
34370;BME280;20635;55.812;37.560;2022-12-07T04:16:51;100517.09;;;25.37;43.83
34370;BME280;20635;55.812;37.560;2022-12-07T04:19:19;100515.94;;;25.38;43.31
34370;BME280;20635;55.812;37.560;2022-12-07T04:21:45;100517.28;;;25.41;43.12
34370;BME280;20635;55.812;37.560;2022-12-07T04:24:13;100523.72;;;25.41;42.83
34370;BME280;20635;55.812;37.560;2022-12-07T04:26:41;100520.94;;;25.41;42.38
34370;BME280;20635;55.812;37.560;2022-12-07T04:29:07;100517.78;;;25.43;42.36
34370;BME280;20635;55.812;37.560;2022-12-07T04:31:34;100508.88;;;25.41;42.69
34370;BME280;20635;55.812;37.560;2022-12-07T04:34:00;100511.34;;;25.42;42.07
34370;BME280;20635;55.812;37.560;2022-12-07T04:36:25;100506.28;;;25.44;42.07
34370;BME280;20635;55.812;37.560;2022-12-07T04:38:53;100508.75;;;25.46;41.79
34370;BME280;20635;55.812;37.560;2022-12-07T04:41:21;100510.13;;;25.48;41.92
34370;BME280;20635;55.812;37.560;2022-12-07T04:43:59;100508.97;;;25.49;41.54
34370;BME280;20635;55.812;37.560;2022-12-07T04:46:26;100508.44;;;25.47;40.15
34370;BME280;20635;55.812;37.560;2022-12-07T04:48:53;100512.19;;;25.43;38.61
34370;BME280;20635;55.812;37.560;2022-12-07T04:51:27;100508.34;;;25.39;37.25
34370;BME280;20635;55.812;37.560;2022-12-07T04:53:54;100513.25;;;25.33;35.50
34370;BME280;20635;55.812;37.560;2022-12-07T04:56:21;100508.28;;;25.30;34.87
34370;BME280;20635;55.812;37.560;2022-12-07T04:58:48;100505.53;;;25.25;34.39
34370;BME280;20635;55.812;37.560;2022-12-07T05:01:15;100512.63;;;25.22;33.85
34370;BME280;20635;55.812;37.560;2022-12-07T05:03:42;100510.75;;;25.18;33.02
34370;BME280;20635;55.812;37.560;2022-12-07T05:06:09;100507.75;;;25.14;33.05
34370;BME280;20635;55.812;37.560;2022-12-07T05:08:35;100513.47;;;25.09;32.28
34370;BME280;20635;55.812;37.560;2022-12-07T05:11:02;100514.03;;;25.06;32.57
34370;BME280;20635;55.812;37.560;2022-12-07T05:13:28;100507.38;;;25.02;31.67
34370;BME280;20635;55.812;37.560;2022-12-07T05:15:54;100505.22;;;24.99;31.71
34370;BME280;20635;55.812;37.560;2022-12-07T05:18:20;100512.28;;;24.96;31.26
34370;BME280;20635;55.812;37.560;2022-12-07T05:20:46;100509.25;;;24.93;31.44
34370;BME280;20635;55.812;37.560;2022-12-07T05:23:13;100511.88;;;24.89;31.10
34370;BME280;20635;55.812;37.560;2022-12-07T05:25:39;100516.94;;;24.87;31.05
34370;BME280;20635;55.812;37.560;2022-12-07T05:28:05;100511.44;;;24.82;30.83
34370;BME280;20635;55.812;37.560;2022-12-07T05:30:32;100509.56;;;24.77;30.81
34370;BME280;20635;55.812;37.560;2022-12-07T05:32:58;100506.25;;;24.75;30.99
34370;BME280;20635;55.812;37.560;2022-12-07T05:35:24;100510.81;;;24.71;30.31
34370;BME280;20635;55.812;37.560;2022-12-07T05:37:50;100501.03;;;24.69;30.58
34370;BME280;20635;55.812;37.560;2022-12-07T05:40:16;100504.44;;;24.66;30.30
34370;BME280;20635;55.812;37.560;2022-12-07T05:42:42;100509.84;;;24.62;30.55
34370;BME280;20635;55.812;37.560;2022-12-07T05:45:09;100510.47;;;24.59;30.55
34370;BME280;20635;55.812;37.560;2022-12-07T05:47:37;100507.97;;;24.58;30.64
34370;BME280;20635;55.812;37.560;2022-12-07T05:50:04;100509.72;;;24.53;30.60
34370;BME280;20635;55.812;37.560;2022-12-07T05:52:30;100496.00;;;24.52;30.88
34370;BME280;20635;55.812;37.560;2022-12-07T05:54:56;100503.06;;;24.49;30.95
34370;BME280;20635;55.812;37.560;2022-12-07T05:57:22;100505.34;;;24.47;30.76
34370;BME280;20635;55.812;37.560;2022-12-07T05:59:47;100499.22;;;24.45;30.54
34370;BME280;20635;55.812;37.560;2022-12-07T06:02:15;100506.78;;;24.45;30.72
34370;BME280;20635;55.812;37.560;2022-12-07T06:04:43;100506.56;;;24.41;30.90
34370;BME280;20635;55.812;37.560;2022-12-07T06:07:10;100497.13;;;24.37;30.50
34370;BME280;20635;55.812;37.560;2022-12-07T06:09:37;100496.28;;;24.37;30.27
34370;BME280;20635;55.812;37.560;2022-12-07T06:12:03;100489.28;;;24.34;30.73
34370;BME280;20635;55.812;37.560;2022-12-07T06:14:47;100491.56;;;24.32;30.82
34370;BME280;20635;55.812;37.560;2022-12-07T06:17:13;100499.16;;;24.32;30.14
34370;BME280;20635;55.812;37.560;2022-12-07T06:19:39;100499.47;;;24.30;30.72
34370;BME280;20635;55.812;37.560;2022-12-07T06:22:06;100501.72;;;24.28;30.25
34370;BME280;20635;55.812;37.560;2022-12-07T06:24:33;100500.06;;;24.27;31.11
34370;BME280;20635;55.812;37.560;2022-12-07T06:26:59;100504.84;;;24.26;30.74
34370;BME280;20635;55.812;37.560;2022-12-07T06:29:25;100502.31;;;24.25;30.48
34370;BME280;20635;55.812;37.560;2022-12-07T06:31:51;100491.75;;;24.22;30.35
34370;BME280;20635;55.812;37.560;2022-12-07T06:34:19;100491.22;;;24.20;29.81
34370;BME280;20635;55.812;37.560;2022-12-07T06:36:46;100494.00;;;24.20;30.36
34370;BME280;20635;55.812;37.560;2022-12-07T06:39:18;100493.50;;;24.18;30.50
34370;BME280;20635;55.812;37.560;2022-12-07T06:41:44;100492.66;;;24.17;30.49
34370;BME280;20635;55.812;37.560;2022-12-07T06:44:10;100494.66;;;24.17;30.50
34370;BME280;20635;55.812;37.560;2022-12-07T06:46:36;100491.00;;;24.16;30.61
34370;BME280;20635;55.812;37.560;2022-12-07T06:49:04;100505.00;;;24.16;30.58
34370;BME280;20635;55.812;37.560;2022-12-07T06:51:30;100507.50;;;24.18;30.71
34370;BME280;20635;55.812;37.560;2022-12-07T06:54:15;100500.53;;;24.15;30.94
34370;BME280;20635;55.812;37.560;2022-12-07T06:56:41;100504.47;;;24.14;30.77
34370;BME280;20635;55.812;37.560;2022-12-07T06:59:07;100499.19;;;24.13;30.15
34370;BME280;20635;55.812;37.560;2022-12-07T07:01:34;100500.31;;;24.12;30.65
34370;BME280;20635;55.812;37.560;2022-12-07T07:04:01;100493.88;;;24.11;29.99
34370;BME280;20635;55.812;37.560;2022-12-07T07:06:27;100508.72;;;24.12;29.91
34370;BME280;20635;55.812;37.560;2022-12-07T07:08:53;100500.63;;;24.10;30.31
34370;BME280;20635;55.812;37.560;2022-12-07T07:11:19;100504.25;;;24.11;29.97
34370;BME280;20635;55.812;37.560;2022-12-07T07:13:45;100503.72;;;24.09;30.16
34370;BME280;20635;55.812;37.560;2022-12-07T07:16:11;100496.47;;;24.08;29.88
34370;BME280;20635;55.812;37.560;2022-12-07T07:18:37;100494.50;;;24.08;30.34
34370;BME280;20635;55.812;37.560;2022-12-07T07:21:03;100494.78;;;24.07;29.85
34370;BME280;20635;55.812;37.560;2022-12-07T07:23:29;100490.88;;;24.08;29.77
34370;BME280;20635;55.812;37.560;2022-12-07T07:25:55;100493.97;;;24.06;29.81
34370;BME280;20635;55.812;37.560;2022-12-07T07:28:21;100493.13;;;24.05;29.50
34370;BME280;20635;55.812;37.560;2022-12-07T07:30:47;100495.63;;;24.07;29.91
34370;BME280;20635;55.812;37.560;2022-12-07T07:33:13;100480.78;;;24.07;30.03
34370;BME280;20635;55.812;37.560;2022-12-07T07:35:39;100468.75;;;24.06;29.76
34370;BME280;20635;55.812;37.560;2022-12-07T07:38:06;100478.00;;;24.07;29.88
34370;BME280;20635;55.812;37.560;2022-12-07T07:40:33;100478.00;;;24.07;30.13
34370;BME280;20635;55.812;37.560;2022-12-07T07:42:58;100467.63;;;24.07;29.56
34370;BME280;20635;55.812;37.560;2022-12-07T07:45:26;100470.72;;;24.05;30.21
34370;BME280;20635;55.812;37.560;2022-12-07T07:47:52;100465.44;;;24.04;29.96
34370;BME280;20635;55.812;37.560;2022-12-07T07:50:19;100466.28;;;24.04;29.51
34370;BME280;20635;55.812;37.560;2022-12-07T07:52:45;100462.66;;;24.04;29.29
34370;BME280;20635;55.812;37.560;2022-12-07T07:55:11;100467.41;;;24.03;29.78
34370;BME280;20635;55.812;37.560;2022-12-07T07:57:38;100461.00;;;24.03;29.87
34370;BME280;20635;55.812;37.560;2022-12-07T08:00:07;100459.03;;;24.03;29.36
34370;BME280;20635;55.812;37.560;2022-12-07T08:02:38;100462.09;;;24.02;29.36
34370;BME280;20635;55.812;37.560;2022-12-07T08:05:05;100469.41;;;24.03;29.30
34370;BME280;20635;55.812;37.560;2022-12-07T08:07:31;100468.53;;;24.02;29.44
34370;BME280;20635;55.812;37.560;2022-12-07T08:09:57;100462.94;;;24.02;29.46
34370;BME280;20635;55.812;37.560;2022-12-07T08:12:23;100466.59;;;24.03;29.41
34370;BME280;20635;55.812;37.560;2022-12-07T08:14:48;100450.63;;;24.03;29.87
34370;BME280;20635;55.812;37.560;2022-12-07T08:17:14;100471.34;;;24.02;29.88
34370;BME280;20635;55.812;37.560;2022-12-07T08:19:40;100461.00;;;24.03;29.59
34370;BME280;20635;55.812;37.560;2022-12-07T08:22:06;100447.81;;;24.03;30.14
34370;BME280;20635;55.812;37.560;2022-12-07T08:24:35;100455.06;;;24.04;30.00
34370;BME280;20635;55.812;37.560;2022-12-07T08:27:02;100458.69;;;24.05;29.55
34370;BME280;20635;55.812;37.560;2022-12-07T08:29:28;100452.28;;;24.04;30.13
34370;BME280;20635;55.812;37.560;2022-12-07T08:31:54;100451.13;;;24.05;29.74
34370;BME280;20635;55.812;37.560;2022-12-07T08:34:20;100450.00;;;24.07;29.43
34370;BME280;20635;55.812;37.560;2022-12-07T08:36:46;100458.69;;;24.05;29.46
34370;BME280;20635;55.812;37.560;2022-12-07T08:39:12;100456.41;;;24.07;29.79
34370;BME280;20635;55.812;37.560;2022-12-07T08:41:38;100450.00;;;24.07;30.06
34370;BME280;20635;55.812;37.560;2022-12-07T08:44:04;100458.38;;;24.07;30.18
34370;BME280;20635;55.812;37.560;2022-12-07T08:49:16;100450.53;;;24.09;29.14
34370;BME280;20635;55.812;37.560;2022-12-07T08:51:44;100444.72;;;24.05;28.93
34370;BME280;20635;55.812;37.560;2022-12-07T08:54:13;100435.78;;;24.03;29.72
34370;BME280;20635;55.812;37.560;2022-12-07T08:56:40;100441.69;;;24.01;29.00
34370;BME280;20635;55.812;37.560;2022-12-07T08:59:07;100435.56;;;23.99;29.55
34370;BME280;20635;55.812;37.560;2022-12-07T09:01:33;100431.13;;;23.98;28.78
34370;BME280;20635;55.812;37.560;2022-12-07T09:03:58;100427.44;;;23.98;28.77
34370;BME280;20635;55.812;37.560;2022-12-07T09:06:25;100422.16;;;23.96;28.68
34370;BME280;20635;55.812;37.560;2022-12-07T09:08:54;100427.78;;;23.96;28.70
34370;BME280;20635;55.812;37.560;2022-12-07T09:11:21;100418.53;;;23.96;28.92
34370;BME280;20635;55.812;37.560;2022-12-07T09:13:47;100417.72;;;23.95;28.88
34370;BME280;20635;55.812;37.560;2022-12-07T09:16:13;100420.84;;;23.94;29.31
34370;BME280;20635;55.812;37.560;2022-12-07T09:18:39;100414.38;;;23.93;29.06
34370;BME280;20635;55.812;37.560;2022-12-07T09:21:05;100413.53;;;23.93;29.19
34370;BME280;20635;55.812;37.560;2022-12-07T09:23:31;100415.84;;;23.91;29.99
34370;BME280;20635;55.812;37.560;2022-12-07T09:26:01;100418.31;;;23.92;30.48
34370;BME280;20635;55.812;37.560;2022-12-07T09:28:28;100406.59;;;23.90;29.77
34370;BME280;20635;55.812;37.560;2022-12-07T09:30:54;100406.28;;;23.92;30.98
34370;BME280;20635;55.812;37.560;2022-12-07T09:33:19;100406.59;;;23.90;30.85
34370;BME280;20635;55.812;37.560;2022-12-07T09:35:46;100404.94;;;23.89;31.17
34370;BME280;20635;55.812;37.560;2022-12-07T09:38:12;100402.16;;;23.89;30.80
34370;BME280;20635;55.812;37.560;2022-12-07T09:40:38;100394.59;;;23.90;30.70
34370;BME280;20635;55.812;37.560;2022-12-07T09:43:08;100396.84;;;23.88;30.82
34370;BME280;20635;55.812;37.560;2022-12-07T09:45:38;100398.81;;;23.87;30.31
34370;BME280;20635;55.812;37.560;2022-12-07T09:48:04;100396.00;;;23.87;30.63
34370;BME280;20635;55.812;37.560;2022-12-07T09:50:31;100396.00;;;23.87;30.59
34370;BME280;20635;55.812;37.560;2022-12-07T09:53:27;100396.25;;;23.91;30.74
34370;BME280;20635;55.812;37.560;2022-12-07T09:55:54;100389.59;;;23.87;30.49
34370;BME280;20635;55.812;37.560;2022-12-07T09:58:23;100384.81;;;23.87;30.49
34370;BME280;20635;55.812;37.560;2022-12-07T10:03:39;100376.97;;;23.89;31.67
34370;BME280;20635;55.812;37.560;2022-12-07T10:06:05;100385.25;;;23.94;31.23
34370;BME280;20635;55.812;37.560;2022-12-07T10:08:32;100385.03;;;23.91;31.44
34370;BME280;20635;55.812;37.560;2022-12-07T10:11:01;100375.00;;;23.90;30.99
34370;BME280;20635;55.812;37.560;2022-12-07T10:13:40;100375.19;;;23.93;30.79
34370;BME280;20635;55.812;37.560;2022-12-07T10:18:55;100366.19;;;23.96;31.24
34370;BME280;20635;55.812;37.560;2022-12-07T10:21:25;100378.44;;;24.00;31.62
34370;BME280;20635;55.812;37.560;2022-12-07T10:24:01;100359.88;;;24.04;30.66
34370;BME280;20635;55.812;37.560;2022-12-07T10:29:18;100365.38;;;24.10;30.18
34370;BME280;20635;55.812;37.560;2022-12-07T10:31:53;100358.63;;;24.11;30.79
34370;BME280;20635;55.812;37.560;2022-12-07T10:34:24;100358.34;;;24.12;31.02
34370;BME280;20635;55.812;37.560;2022-12-07T10:36:52;100358.03;;;24.14;31.38
34370;BME280;20635;55.812;37.560;2022-12-07T10:39:20;100349.31;;;24.15;29.80
34370;BME280;20635;55.812;37.560;2022-12-07T10:44:26;100355.75;;;24.16;30.62
34370;BME280;20635;55.812;37.560;2022-12-07T10:57:56;100343.00;;;24.23;30.87
34370;BME280;20635;55.812;37.560;2022-12-07T11:00:25;100340.31;;;24.18;29.53
34370;BME280;20635;55.812;37.560;2022-12-07T11:08:23;100332.72;;;24.19;29.76
34370;BME280;20635;55.812;37.560;2022-12-07T11:11:13;100333.03;;;24.17;30.78
34370;BME280;20635;55.812;37.560;2022-12-07T11:19:06;100320.16;;;24.16;30.07
34370;BME280;20635;55.812;37.560;2022-12-07T11:21:48;100319.34;;;24.16;30.53
34370;BME280;20635;55.812;37.560;2022-12-07T11:24:20;100306.81;;;24.13;30.89
34370;BME280;20635;55.812;37.560;2022-12-07T11:37:49;100312.88;;;24.01;30.88
34370;BME280;20635;55.812;37.560;2022-12-07T11:40:36;100311.13;;;24.05;31.62
34370;BME280;20635;55.812;37.560;2022-12-07T11:46:03;100304.19;;;24.03;30.99
34370;BME280;20635;55.812;37.560;2022-12-07T11:48:37;100309.59;;;23.99;30.64
34370;BME280;20635;55.812;37.560;2022-12-07T11:51:07;100303.44;;;23.97;30.66
34370;BME280;20635;55.812;37.560;2022-12-07T11:53:57;100291.97;;;23.99;30.53
34370;BME280;20635;55.812;37.560;2022-12-07T11:56:28;100286.13;;;23.95;30.46
34370;BME280;20635;55.812;37.560;2022-12-07T11:59:02;100290.28;;;23.98;31.53
34370;BME280;20635;55.812;37.560;2022-12-07T12:06:41;100281.81;;;24.03;32.97
34370;BME280;20635;55.812;37.560;2022-12-07T12:09:29;100283.69;;;24.08;33.20
34370;BME280;20635;55.812;37.560;2022-12-07T12:12:25;100278.25;;;24.11;33.55
34370;BME280;20635;55.812;37.560;2022-12-07T12:18:09;100280.97;;;24.16;34.53
34370;BME280;20635;55.812;37.560;2022-12-07T12:21:04;100282.53;;;24.22;34.41
34370;BME280;20635;55.812;37.560;2022-12-07T12:23:39;100278.59;;;24.23;34.69
34370;BME280;20635;55.812;37.560;2022-12-07T12:26:08;100275.47;;;24.25;34.61
34370;BME280;20635;55.812;37.560;2022-12-07T12:28:40;100272.88;;;24.28;34.71
34370;BME280;20635;55.812;37.560;2022-12-07T12:31:24;100279.19;;;24.34;34.91
34370;BME280;20635;55.812;37.560;2022-12-07T12:33:58;100278.06;;;24.35;35.15
34370;BME280;20635;55.812;37.560;2022-12-07T12:44:03;100278.72;;;24.46;35.25
34370;BME280;20635;55.812;37.560;2022-12-07T12:47:01;100278.94;;;24.49;35.42
34370;BME280;20635;55.812;37.560;2022-12-07T12:49:39;100281.94;;;24.53;35.25
34370;BME280;20635;55.812;37.560;2022-12-07T12:55:11;100278.19;;;24.58;35.58
34370;BME280;20635;55.812;37.560;2022-12-07T12:57:38;100265.63;;;24.55;35.81
34370;BME280;20635;55.812;37.560;2022-12-07T13:00:21;100269.13;;;24.61;35.24
34370;BME280;20635;55.812;37.560;2022-12-07T13:02:50;100265.84;;;24.59;35.76
34370;BME280;20635;55.812;37.560;2022-12-07T13:05:28;100280.34;;;24.61;35.21
34370;BME280;20635;55.812;37.560;2022-12-07T13:08:01;100274.75;;;24.61;35.13
34370;BME280;20635;55.812;37.560;2022-12-07T13:29:18;100263.34;;;24.71;34.52
34370;BME280;20635;55.812;37.560;2022-12-07T13:31:55;100259.69;;;24.70;34.79
34370;BME280;20635;55.812;37.560;2022-12-07T13:37:10;100257.72;;;24.71;34.50
34370;BME280;20635;55.812;37.560;2022-12-07T13:39:47;100259.38;;;24.72;34.51
34370;BME280;20635;55.812;37.560;2022-12-07T13:42:28;100258.22;;;24.73;34.13
34370;BME280;20635;55.812;37.560;2022-12-07T13:44:55;100254.06;;;24.70;33.92
34370;BME280;20635;55.812;37.560;2022-12-07T13:49:58;100248.47;;;24.70;34.15
34370;BME280;20635;55.812;37.560;2022-12-07T13:52:27;100252.94;;;24.71;34.07
34370;BME280;20635;55.812;37.560;2022-12-07T13:57:34;100238.59;;;24.73;34.44
34370;BME280;20635;55.812;37.560;2022-12-07T14:00:06;100243.06;;;24.74;34.67
34370;BME280;20635;55.812;37.560;2022-12-07T14:05:27;100251.69;;;24.77;34.94
34370;BME280;20635;55.812;37.560;2022-12-07T14:08:02;100247.72;;;24.78;35.06
34370;BME280;20635;55.812;37.560;2022-12-07T14:10:34;100239.31;;;24.78;35.25
34370;BME280;20635;55.812;37.560;2022-12-07T14:13:03;100237.34;;;24.79;35.49
34370;BME280;20635;55.812;37.560;2022-12-07T14:15:50;100242.31;;;24.82;35.59
34370;BME280;20635;55.812;37.560;2022-12-07T14:18:29;100258.00;;;24.83;35.49
34370;BME280;20635;55.812;37.560;2022-12-07T14:21:23;100245.31;;;24.86;35.55
34370;BME280;20635;55.812;37.560;2022-12-07T14:26:34;100241.69;;;24.85;35.90
34370;BME280;20635;55.812;37.560;2022-12-07T14:29:19;100248.34;;;24.89;36.09
34370;BME280;20635;55.812;37.560;2022-12-07T14:31:45;100235.78;;;24.87;36.33
34370;BME280;20635;55.812;37.560;2022-12-07T14:34:12;100232.13;;;24.86;36.11
34370;BME280;20635;55.812;37.560;2022-12-07T14:36:38;100237.41;;;24.88;36.47
34370;BME280;20635;55.812;37.560;2022-12-07T14:39:04;100235.16;;;24.90;36.72
34370;BME280;20635;55.812;37.560;2022-12-07T14:41:30;100229.53;;;24.90;36.60
34370;BME280;20635;55.812;37.560;2022-12-07T14:44:15;100231.19;;;24.91;36.96
34370;BME280;20635;55.812;37.560;2022-12-07T14:46:41;100232.84;;;24.92;36.76
34370;BME280;20635;55.812;37.560;2022-12-07T14:49:08;100233.66;;;24.92;36.80
34370;BME280;20635;55.812;37.560;2022-12-07T14:51:36;100232.50;;;24.93;37.05
34370;BME280;20635;55.812;37.560;2022-12-07T14:54:05;100233.03;;;24.95;36.79
34370;BME280;20635;55.812;37.560;2022-12-07T14:56:32;100225.47;;;24.96;36.59
34370;BME280;20635;55.812;37.560;2022-12-07T14:58:58;100217.03;;;24.96;36.25
34370;BME280;20635;55.812;37.560;2022-12-07T15:01:24;100218.69;;;24.97;36.83